createdAt,value
2019-01-17T00:00:12.488Z,18.60
2019-01-17T00:01:12.516Z,13.90
2019-01-17T00:02:12.542Z,13.90
2019-01-17T00:02:31.807Z,9.23
2019-01-17T00:03:12.539Z,14.40
2019-01-17T00:04:12.548Z,17.60
2019-01-17T00:05:12.567Z,12.30
2019-01-17T00:05:18.964Z,9.47
2019-01-17T00:06:12.587Z,14.50
2019-01-17T00:07:12.595Z,14.80
2019-01-17T00:08:04.758Z,8.53
2019-01-17T00:08:12.621Z,11.80
2019-01-17T00:09:12.643Z,13.40
2019-01-17T00:10:12.644Z,14.30
2019-01-17T00:10:54.591Z,6.87
2019-01-17T00:11:12.680Z,11.70
2019-01-17T00:12:12.688Z,15.00
2019-01-17T00:13:12.693Z,14.20
2019-01-17T00:13:30.725Z,8.67
2019-01-17T00:14:12.703Z,13.70
2019-01-17T00:15:12.726Z,11.00
2019-01-17T00:16:12.737Z,11.00
2019-01-17T00:16:28.265Z,6.87
2019-01-17T00:17:12.758Z,11.50
2019-01-17T00:18:12.784Z,11.50
2019-01-17T00:19:12.795Z,13.40
2019-01-17T00:19:13.935Z,9.13
2019-01-17T00:20:12.802Z,11.90
2019-01-17T00:21:12.814Z,14.10
2019-01-17T00:22:06.819Z,8.00
2019-01-17T00:22:12.830Z,12.80
2019-01-17T00:23:12.855Z,9.50
2019-01-17T00:24:12.893Z,10.10
2019-01-17T00:25:03.325Z,6.80
2019-01-17T00:25:12.898Z,13.20
2019-01-17T00:26:12.905Z,13.10
2019-01-17T00:27:12.911Z,12.70
2019-01-17T00:27:37.047Z,7.37
2019-01-17T00:28:12.936Z,13.30
2019-01-17T00:29:12.951Z,12.70
2019-01-17T00:30:12.958Z,15.80
2019-01-17T00:30:30.900Z,9.80
2019-01-17T00:31:12.981Z,12.90
2019-01-17T00:32:12.994Z,15.50
2019-01-17T00:33:13.015Z,12.10
2019-01-17T00:33:27.231Z,7.63
2019-01-17T00:34:13.041Z,13.80
2019-01-17T00:35:13.045Z,12.20
2019-01-17T00:36:13.061Z,11.50
2019-01-17T00:36:25.305Z,8.20
2019-01-17T00:37:13.081Z,12.90
2019-01-17T00:38:13.094Z,13.50
2019-01-17T00:39:11.187Z,8.50
2019-01-17T00:39:13.103Z,12.80
2019-01-17T00:40:13.122Z,13.60
2019-01-17T00:41:13.138Z,13.60
2019-01-17T00:41:58.310Z,9.43
2019-01-17T00:42:13.149Z,15.00
2019-01-17T00:43:13.162Z,13.70
2019-01-17T00:44:13.183Z,13.90
2019-01-17T00:44:40.949Z,7.53
2019-01-17T00:45:13.194Z,11.50
2019-01-17T00:46:13.219Z,12.20
2019-01-17T00:47:13.234Z,13.00
2019-01-17T00:47:20.182Z,10.37
2019-01-17T00:48:13.249Z,15.10
2019-01-17T00:49:13.263Z,12.40
2019-01-17T00:50:07.368Z,8.50
2019-01-17T00:50:13.281Z,10.80
2019-01-17T00:51:13.298Z,11.20
2019-01-17T00:52:13.309Z,10.60
2019-01-17T00:52:53.056Z,7.30
2019-01-17T00:53:13.325Z,13.40
2019-01-17T00:54:13.344Z,12.80
2019-01-17T00:55:13.354Z,12.90
2019-01-17T00:55:45.905Z,9.67
2019-01-17T00:56:13.372Z,12.60
2019-01-17T00:57:13.402Z,11.20
2019-01-17T00:58:13.406Z,14.00
2019-01-17T00:58:36.200Z,8.10
2019-01-17T00:59:13.431Z,16.20
2019-01-17T01:00:13.436Z,12.80
2019-01-17T01:01:13.451Z,11.70
2019-01-17T01:01:22.115Z,8.13
2019-01-17T01:02:13.477Z,13.60
2019-01-17T01:03:13.481Z,12.80
2019-01-17T01:04:08.283Z,9.67
2019-01-17T01:04:13.527Z,13.50
2019-01-17T01:05:13.530Z,14.10
2019-01-17T01:06:13.535Z,12.60
2019-01-17T01:06:55.499Z,10.00
2019-01-17T01:07:13.543Z,12.90
2019-01-17T01:08:13.571Z,10.30
2019-01-17T01:09:13.596Z,12.40
2019-01-17T01:09:42.713Z,8.47
2019-01-17T01:10:13.593Z,11.90
2019-01-17T01:11:13.608Z,11.40
2019-01-17T01:12:13.627Z,12.30
2019-01-17T01:12:39.084Z,11.73
2019-01-17T01:13:13.643Z,13.00
2019-01-17T01:14:13.653Z,11.60
2019-01-17T01:15:13.697Z,12.80
2019-01-17T01:15:25.035Z,7.90
2019-01-17T01:16:13.702Z,14.30
2019-01-17T01:17:13.710Z,13.00
2019-01-17T01:18:12.091Z,7.57
2019-01-17T01:18:13.722Z,11.40
2019-01-17T01:19:13.743Z,14.00
2019-01-17T01:20:13.752Z,11.70
2019-01-17T01:20:54.371Z,7.27
2019-01-17T01:21:13.768Z,12.80
2019-01-17T01:22:13.799Z,14.00
2019-01-17T01:23:13.808Z,12.40
2019-01-17T01:23:37.178Z,10.33
2019-01-17T01:24:15.556Z,16.10
2019-01-17T01:25:13.841Z,11.60
2019-01-17T01:26:13.852Z,11.60
2019-01-17T01:26:23.138Z,8.70
2019-01-17T01:27:13.868Z,12.00
2019-01-17T01:28:13.933Z,12.70
2019-01-17T01:29:09.251Z,9.13
2019-01-17T01:29:13.897Z,8.40
2019-01-17T01:30:13.912Z,11.20
2019-01-17T01:31:13.947Z,15.70
2019-01-17T01:31:56.392Z,8.43
2019-01-17T01:32:13.948Z,10.50
2019-01-17T01:33:13.956Z,12.20
2019-01-17T01:34:13.980Z,13.90
2019-01-17T01:34:37.138Z,8.03
2019-01-17T01:35:13.997Z,12.60
2019-01-17T01:36:14.013Z,15.20
2019-01-17T01:37:14.028Z,9.90
2019-01-17T01:37:22.762Z,10.70
2019-01-17T01:38:14.069Z,10.20
2019-01-17T01:39:14.057Z,11.00
2019-01-17T01:40:14.085Z,10.20
2019-01-17T01:40:15.674Z,6.87
2019-01-17T01:41:14.092Z,12.40
2019-01-17T01:42:14.122Z,11.40
2019-01-17T01:43:02.728Z,7.30
2019-01-17T01:43:14.134Z,11.50
2019-01-17T01:44:14.165Z,14.40
2019-01-17T01:45:14.172Z,15.00
2019-01-17T01:45:50.435Z,7.53
2019-01-17T01:46:14.178Z,13.30
2019-01-17T01:47:14.198Z,12.20
2019-01-17T01:48:14.219Z,11.80
2019-01-17T01:48:40.294Z,6.67
2019-01-17T01:49:14.219Z,14.00
2019-01-17T01:50:14.257Z,11.20
2019-01-17T01:51:14.253Z,9.90
2019-01-17T01:51:26.055Z,7.37
2019-01-17T01:52:14.276Z,12.70
2019-01-17T01:53:14.291Z,11.30
2019-01-17T01:53:53.742Z,8.87
2019-01-17T01:54:14.309Z,12.80
2019-01-17T01:55:14.326Z,12.60
2019-01-17T01:56:14.333Z,13.60
2019-01-17T01:56:21.402Z,7.83
2019-01-17T01:57:14.354Z,9.90
2019-01-17T01:58:14.386Z,10.30
2019-01-17T01:58:49.065Z,6.27
2019-01-17T01:59:14.391Z,9.30
2019-01-17T02:00:14.411Z,8.80
2019-01-17T02:01:14.418Z,10.60
2019-01-17T02:01:16.758Z,5.37
2019-01-17T02:02:14.433Z,7.80
2019-01-17T02:03:14.444Z,9.30
2019-01-17T02:03:44.498Z,5.70
2019-01-17T02:04:14.465Z,9.00
2019-01-17T02:05:14.489Z,8.90
2019-01-17T02:06:12.081Z,5.87
2019-01-17T02:06:14.498Z,7.20
2019-01-17T02:07:14.516Z,10.00
2019-01-17T02:08:14.528Z,8.30
2019-01-17T02:08:39.643Z,5.87
2019-01-17T02:09:14.570Z,9.00
2019-01-17T02:10:14.570Z,8.10
2019-01-17T02:11:07.242Z,5.50
2019-01-17T02:11:14.580Z,10.70
2019-01-17T02:12:14.593Z,9.40
2019-01-17T02:13:14.609Z,9.30
2019-01-17T02:13:35.161Z,6.50
2019-01-17T02:14:14.622Z,7.60
2019-01-17T02:15:14.639Z,11.00
2019-01-17T02:16:02.789Z,9.00
2019-01-17T02:16:14.701Z,9.20
2019-01-17T02:17:14.675Z,7.80
2019-01-17T02:18:14.691Z,11.20
2019-01-17T02:18:30.490Z,5.73
2019-01-17T02:19:14.704Z,8.00
2019-01-17T02:20:14.723Z,6.90
2019-01-17T02:20:58.151Z,5.17
2019-01-17T02:21:14.781Z,8.60
2019-01-17T02:22:14.754Z,8.60
2019-01-17T02:23:14.762Z,8.60
2019-01-17T02:23:25.779Z,6.77
2019-01-17T02:24:14.783Z,7.60
2019-01-17T02:25:14.814Z,9.30
2019-01-17T02:25:53.297Z,6.37
2019-01-17T02:26:14.816Z,10.00
2019-01-17T02:27:14.847Z,11.60
2019-01-17T02:28:14.871Z,8.10
2019-01-17T02:28:21.021Z,6.27
2019-01-17T02:29:14.873Z,8.50
2019-01-17T02:30:14.964Z,8.20
2019-01-17T02:30:48.592Z,6.03
2019-01-17T02:31:14.909Z,8.40
2019-01-17T02:32:14.915Z,7.30
2019-01-17T02:33:14.944Z,13.00
2019-01-17T02:33:16.279Z,6.70
2019-01-17T02:34:14.964Z,10.30
2019-01-17T02:35:14.973Z,8.50
2019-01-17T02:35:43.869Z,6.30
2019-01-17T02:36:14.976Z,9.70
2019-01-17T02:37:15.002Z,8.10
2019-01-17T02:38:11.369Z,6.73
2019-01-17T02:38:15.017Z,8.60
2019-01-17T02:39:15.027Z,8.00
2019-01-17T02:40:15.038Z,10.30
2019-01-17T02:40:38.896Z,6.00
2019-01-17T02:41:15.073Z,9.30
2019-01-17T02:42:15.074Z,9.90
2019-01-17T02:43:06.541Z,6.60
2019-01-17T02:43:15.086Z,8.30
2019-01-17T02:44:15.122Z,8.10
2019-01-17T02:45:15.133Z,9.90
2019-01-17T02:45:34.110Z,6.30
2019-01-17T02:46:15.133Z,9.10
2019-01-17T02:47:15.148Z,8.50
2019-01-17T02:48:04.114Z,6.20
2019-01-17T02:48:15.172Z,8.40
2019-01-17T02:49:15.194Z,9.70
2019-01-17T02:50:15.200Z,6.70
2019-01-17T02:50:31.782Z,5.77
2019-01-17T02:51:15.227Z,11.10
2019-01-17T02:52:15.232Z,8.70
2019-01-17T02:52:59.439Z,6.33
2019-01-17T02:53:15.251Z,7.80
2019-01-17T02:54:15.264Z,8.10
2019-01-17T02:55:15.287Z,9.10
2019-01-17T02:55:27.203Z,6.77
2019-01-17T02:56:15.292Z,9.20
2019-01-17T02:57:15.309Z,8.60
2019-01-17T02:57:54.802Z,6.20
2019-01-17T02:58:15.329Z,11.00
2019-01-17T02:59:15.352Z,9.60
2019-01-17T03:00:15.373Z,8.90
2019-01-17T03:00:22.622Z,6.13
2019-01-17T03:01:15.378Z,9.60
2019-01-17T03:02:15.444Z,7.60
2019-01-17T03:02:50.231Z,6.07
2019-01-17T03:03:15.411Z,6.70
2019-01-17T03:04:15.428Z,6.90
2019-01-17T03:05:15.453Z,7.60
2019-01-17T03:05:17.907Z,7.93
2019-01-17T03:06:15.461Z,6.70
2019-01-17T03:07:15.487Z,5.90
2019-01-17T03:07:47.970Z,6.63
2019-01-17T03:08:15.511Z,8.30
2019-01-17T03:09:15.503Z,9.30
2019-01-17T03:10:15.573Z,7.10
2019-01-17T03:10:16.141Z,6.10
2019-01-17T03:11:15.536Z,7.90
2019-01-17T03:12:15.554Z,6.30
2019-01-17T03:12:43.896Z,6.13
2019-01-17T03:13:15.579Z,6.70
2019-01-17T03:14:15.589Z,5.40
2019-01-17T03:15:11.666Z,5.33
2019-01-17T03:15:15.601Z,7.70
2019-01-17T03:16:15.632Z,6.90
2019-01-17T03:17:15.640Z,7.50
2019-01-17T03:17:39.226Z,5.03
2019-01-17T03:18:15.689Z,5.50
2019-01-17T03:19:15.672Z,5.60
2019-01-17T03:20:07.488Z,4.67
2019-01-17T03:20:15.679Z,4.40
2019-01-17T03:21:15.696Z,5.80
2019-01-17T03:22:15.712Z,4.80
2019-01-17T03:22:35.076Z,4.20
2019-01-17T03:23:15.742Z,4.30
2019-01-17T03:24:15.753Z,3.90
2019-01-17T03:25:03.168Z,3.97
2019-01-17T03:25:15.768Z,4.40
2019-01-17T03:26:15.781Z,4.90
2019-01-17T03:27:15.799Z,3.40
2019-01-17T03:27:31.002Z,3.87
2019-01-17T03:28:15.806Z,3.30
2019-01-17T03:29:15.821Z,4.20
2019-01-17T03:30:01.399Z,3.10
2019-01-17T03:30:15.846Z,3.30
2019-01-17T03:31:15.869Z,3.60
2019-01-17T03:32:15.876Z,3.40
2019-01-17T03:32:29.052Z,3.10
2019-01-17T03:33:15.895Z,5.50
2019-01-17T03:34:15.899Z,3.10
2019-01-17T03:34:56.560Z,3.13
2019-01-17T03:35:15.918Z,3.20
2019-01-17T03:36:15.932Z,3.60
2019-01-17T03:37:15.962Z,3.10
2019-01-17T03:37:24.289Z,3.43
2019-01-17T03:38:15.966Z,2.80
2019-01-17T03:39:15.988Z,3.00
2019-01-17T03:39:51.886Z,3.37
2019-01-17T03:40:16.015Z,2.80
2019-01-17T03:41:16.014Z,3.30
2019-01-17T03:42:16.031Z,3.10
2019-01-17T03:42:19.625Z,2.73
2019-01-17T03:43:16.042Z,2.60
2019-01-17T03:44:16.065Z,2.60
2019-01-17T03:44:47.473Z,3.03
2019-01-17T03:45:16.072Z,2.50
2019-01-17T03:46:16.089Z,2.70
2019-01-17T03:47:15.082Z,2.70
2019-01-17T03:47:16.111Z,2.40
2019-01-17T03:48:16.130Z,2.40
2019-01-17T03:49:16.136Z,2.20
2019-01-17T03:49:42.793Z,2.60
2019-01-17T03:50:16.165Z,2.30
2019-01-17T03:51:16.213Z,3.90
2019-01-17T03:52:10.463Z,2.50
2019-01-17T03:52:16.202Z,3.60
2019-01-17T03:53:16.235Z,2.80
2019-01-17T03:54:16.216Z,3.30
2019-01-17T03:54:38.231Z,3.07
2019-01-17T03:55:16.254Z,2.70
2019-01-17T03:56:21.646Z,3.00
2019-01-17T03:57:05.820Z,6.43
2019-01-17T03:57:16.257Z,3.90
2019-01-17T03:58:16.291Z,7.50
2019-01-17T03:59:16.296Z,4.50
2019-01-17T03:59:33.323Z,2.83
2019-01-17T04:00:16.312Z,3.60
2019-01-17T04:01:16.324Z,2.60
2019-01-17T04:02:00.997Z,3.10
2019-01-17T04:02:16.341Z,2.60
2019-01-17T04:03:16.355Z,3.10
2019-01-17T04:04:16.374Z,4.80
2019-01-17T04:04:28.665Z,2.03
2019-01-17T04:05:16.385Z,2.20
2019-01-17T04:06:16.403Z,3.10
2019-01-17T04:06:56.343Z,3.03
2019-01-17T04:07:16.417Z,3.40
2019-01-17T04:08:16.435Z,2.20
2019-01-17T04:09:16.453Z,2.90
2019-01-17T04:09:23.890Z,2.60
2019-01-17T04:10:16.479Z,2.30
2019-01-17T04:11:16.479Z,2.40
2019-01-17T04:11:51.637Z,4.23
2019-01-17T04:12:16.506Z,2.50
2019-01-17T04:13:16.518Z,2.70
2019-01-17T04:14:16.532Z,3.40
2019-01-17T04:14:19.338Z,4.20
2019-01-17T04:15:16.547Z,3.20
2019-01-17T04:16:16.558Z,2.50
2019-01-17T04:16:48.681Z,3.40
2019-01-17T04:17:16.569Z,3.10
2019-01-17T04:18:16.592Z,2.80
2019-01-17T04:19:16.366Z,3.37
2019-01-17T04:19:16.617Z,2.90
2019-01-17T04:20:16.624Z,3.00
2019-01-17T04:21:16.631Z,2.70
2019-01-17T04:21:44.050Z,2.77
2019-01-17T04:22:16.678Z,4.60
2019-01-17T04:23:16.675Z,2.90
2019-01-17T04:24:11.715Z,3.33
2019-01-17T04:24:16.686Z,2.60
2019-01-17T04:25:16.698Z,3.10
2019-01-17T04:26:16.721Z,3.20
2019-01-17T04:26:39.366Z,3.20
2019-01-17T04:27:16.727Z,3.30
2019-01-17T04:28:16.743Z,3.60
2019-01-17T04:29:07.034Z,3.80
2019-01-17T04:29:16.755Z,3.30
2019-01-17T04:30:16.828Z,3.30
2019-01-17T04:31:16.814Z,4.50
2019-01-17T04:31:34.996Z,3.90
2019-01-17T04:32:16.811Z,3.80
2019-01-17T04:33:16.827Z,3.70
2019-01-17T04:34:03.075Z,4.77
2019-01-17T04:34:16.834Z,3.50
2019-01-17T04:35:16.850Z,3.70
2019-01-17T04:36:16.874Z,3.70
2019-01-17T04:36:30.802Z,3.80
2019-01-17T04:37:16.887Z,3.50
2019-01-17T04:38:16.897Z,4.00
2019-01-17T04:38:58.293Z,4.07
2019-01-17T04:39:16.957Z,5.90
2019-01-17T04:40:16.929Z,5.20
2019-01-17T04:41:16.941Z,4.70
2019-01-17T04:41:26.022Z,4.60
2019-01-17T04:42:16.963Z,5.00
2019-01-17T04:43:16.993Z,4.10
2019-01-17T04:43:53.666Z,4.70
2019-01-17T04:44:16.994Z,4.00
2019-01-17T04:45:17.010Z,4.10
2019-01-17T04:46:17.041Z,5.20
2019-01-17T04:46:21.381Z,4.83
2019-01-17T04:47:17.042Z,3.90
2019-01-17T04:48:17.055Z,5.30
2019-01-17T04:48:48.925Z,5.03
2019-01-17T04:49:17.068Z,4.30
2019-01-17T04:50:17.102Z,5.40
2019-01-17T04:51:16.484Z,5.13
2019-01-17T04:51:17.112Z,4.60
2019-01-17T04:52:17.128Z,4.90
2019-01-17T04:53:17.132Z,7.70
2019-01-17T04:53:44.258Z,5.90
2019-01-17T04:54:17.160Z,4.40
2019-01-17T04:55:17.167Z,4.70
2019-01-17T04:56:11.882Z,5.37
2019-01-17T04:56:17.179Z,4.30
2019-01-17T04:57:17.189Z,5.30
2019-01-17T04:58:17.211Z,4.80
2019-01-17T04:58:39.546Z,5.73
2019-01-17T04:59:17.230Z,5.90
2019-01-17T05:00:17.243Z,6.40
2019-01-17T05:01:07.306Z,5.50
2019-01-17T05:01:17.272Z,6.80
2019-01-17T05:02:17.276Z,9.00
2019-01-17T05:03:17.286Z,6.90
2019-01-17T05:03:34.810Z,5.80
2019-01-17T05:04:17.301Z,7.10
2019-01-17T05:05:17.322Z,5.70
2019-01-17T05:06:02.638Z,5.87
2019-01-17T05:06:17.350Z,6.50
2019-01-17T05:07:17.354Z,7.80
2019-01-17T05:08:17.377Z,8.80
2019-01-17T05:08:30.048Z,8.43
2019-01-17T05:09:17.384Z,9.00
2019-01-17T05:10:17.417Z,8.20
2019-01-17T05:10:57.637Z,5.40
2019-01-17T05:11:17.414Z,7.80
2019-01-17T05:12:17.440Z,8.10
2019-01-17T05:13:17.443Z,6.70
2019-01-17T05:13:25.197Z,5.87
2019-01-17T05:14:17.459Z,6.80
2019-01-17T05:15:17.471Z,9.70
2019-01-17T05:15:52.733Z,5.03
2019-01-17T05:16:17.502Z,9.10
2019-01-17T05:17:17.509Z,7.30
2019-01-17T05:18:17.529Z,8.80
2019-01-17T05:18:20.313Z,5.70
2019-01-17T05:19:17.545Z,6.30
2019-01-17T05:20:17.561Z,8.10
2019-01-17T05:20:47.981Z,5.93
2019-01-17T05:21:17.576Z,5.70
2019-01-17T05:22:17.588Z,8.50
2019-01-17T05:23:15.747Z,6.67
2019-01-17T05:23:17.600Z,7.40
2019-01-17T05:24:17.638Z,8.30
2019-01-17T05:25:17.626Z,9.20
2019-01-17T05:25:43.500Z,9.70
2019-01-17T05:26:17.673Z,7.70
2019-01-17T05:27:17.662Z,12.50
2019-01-17T05:28:10.964Z,8.00
2019-01-17T05:28:17.677Z,10.90
2019-01-17T05:29:17.707Z,11.50
2019-01-17T05:30:17.707Z,13.10
2019-01-17T05:30:38.496Z,7.70
2019-01-17T05:31:17.766Z,11.70
2019-01-17T05:32:17.748Z,10.90
2019-01-17T05:33:06.283Z,8.60
2019-01-17T05:33:17.757Z,7.90
2019-01-17T05:34:17.799Z,7.40
2019-01-17T05:35:17.787Z,8.90
2019-01-17T05:35:33.834Z,6.07
2019-01-17T05:36:17.812Z,6.00
2019-01-17T05:37:17.815Z,8.90
2019-01-17T05:38:03.018Z,5.80
2019-01-17T05:38:17.829Z,7.90
2019-01-17T05:39:17.845Z,6.90
2019-01-17T05:40:17.868Z,8.40
2019-01-17T05:40:30.795Z,5.70
2019-01-17T05:41:17.876Z,5.90
2019-01-17T05:42:17.906Z,8.10
2019-01-17T05:42:58.397Z,5.80
2019-01-17T05:43:17.908Z,9.00
2019-01-17T05:44:17.949Z,6.60
2019-01-17T05:45:17.944Z,8.90
2019-01-17T05:45:26.065Z,6.97
2019-01-17T05:46:17.957Z,11.40
2019-01-17T05:47:17.973Z,10.20
2019-01-17T05:47:53.871Z,7.70
2019-01-17T05:48:18.012Z,6.50
2019-01-17T05:49:18.022Z,7.80
2019-01-17T05:50:18.023Z,7.20
2019-01-17T05:50:21.398Z,7.30
2019-01-17T05:51:18.039Z,7.90
2019-01-17T05:52:18.060Z,6.90
2019-01-17T05:52:49.035Z,7.87
2019-01-17T05:53:18.084Z,8.10
2019-01-17T05:54:18.096Z,10.70
2019-01-17T05:55:20.101Z,6.80
2019-01-17T05:55:20.144Z,6.20
2019-01-17T05:56:18.132Z,7.30
2019-01-17T05:57:18.132Z,8.50
2019-01-17T05:57:46.159Z,8.10
2019-01-17T05:58:18.171Z,7.10
2019-01-17T05:59:18.163Z,11.90
2019-01-17T06:00:15.126Z,8.47
2019-01-17T06:00:18.185Z,8.20
2019-01-17T06:01:18.199Z,7.70
2019-01-17T06:02:18.223Z,11.70
2019-01-17T06:02:42.749Z,8.10
2019-01-17T06:03:18.237Z,7.90
2019-01-17T06:04:18.246Z,9.50
2019-01-17T06:05:10.570Z,7.23
2019-01-17T06:05:18.267Z,6.80
2019-01-17T06:06:18.281Z,7.40
2019-01-17T06:07:18.294Z,7.90
2019-01-17T06:07:38.136Z,7.07
2019-01-17T06:08:18.327Z,9.70
2019-01-17T06:09:18.336Z,7.90
2019-01-17T06:10:06.614Z,8.00
2019-01-17T06:10:18.342Z,7.80
2019-01-17T06:11:18.361Z,6.50
2019-01-17T06:12:18.376Z,6.80
2019-01-17T06:12:34.372Z,6.03
2019-01-17T06:13:18.389Z,9.00
2019-01-17T06:14:18.403Z,9.60
2019-01-17T06:15:02.060Z,6.73
2019-01-17T06:15:18.437Z,6.60
2019-01-17T06:16:18.453Z,7.70
2019-01-17T06:17:18.451Z,6.60
2019-01-17T06:17:29.622Z,6.90
2019-01-17T06:18:18.466Z,8.20
2019-01-17T06:19:18.492Z,10.60
2019-01-17T06:19:57.512Z,7.53
2019-01-17T06:20:18.506Z,9.00
2019-01-17T06:21:18.517Z,11.70
2019-01-17T06:22:18.533Z,9.20
2019-01-17T06:22:25.014Z,7.10
2019-01-17T06:23:18.546Z,6.50
2019-01-17T06:24:18.563Z,9.30
2019-01-17T06:24:52.777Z,6.63
2019-01-17T06:25:18.579Z,7.80
2019-01-17T06:26:18.605Z,7.70
2019-01-17T06:27:18.611Z,7.60
2019-01-17T06:27:20.342Z,6.47
2019-01-17T06:28:18.626Z,8.00
2019-01-17T06:29:18.656Z,7.20
2019-01-17T06:29:48.100Z,7.03
2019-01-17T06:30:18.662Z,8.10
2019-01-17T06:31:18.682Z,8.70
2019-01-17T06:32:15.660Z,8.30
2019-01-17T06:32:18.694Z,9.60
2019-01-17T06:33:18.716Z,6.30
2019-01-17T06:34:18.738Z,8.20
2019-01-17T06:34:43.261Z,7.53
2019-01-17T06:35:18.747Z,8.30
2019-01-17T06:36:18.758Z,8.90
2019-01-17T06:37:10.796Z,6.53
2019-01-17T06:37:18.772Z,7.60
2019-01-17T06:38:18.792Z,8.50
2019-01-17T06:39:18.807Z,7.10
2019-01-17T06:39:38.444Z,5.73
2019-01-17T06:40:18.845Z,10.00
2019-01-17T06:41:18.837Z,9.40
2019-01-17T06:42:09.052Z,6.20
2019-01-17T06:42:18.851Z,9.70
2019-01-17T06:43:18.868Z,8.20
2019-01-17T06:44:20.433Z,8.90
2019-01-17T06:44:36.759Z,7.80
2019-01-17T06:45:18.897Z,9.00
2019-01-17T06:46:18.932Z,9.30
2019-01-17T06:47:04.436Z,6.77
2019-01-17T06:47:18.928Z,12.40
2019-01-17T06:48:18.952Z,9.50
2019-01-17T06:49:18.965Z,8.70
2019-01-17T06:49:32.173Z,6.10
2019-01-17T06:50:18.980Z,8.10
2019-01-17T06:51:18.998Z,9.70
2019-01-17T06:51:59.759Z,8.20
2019-01-17T06:52:19.009Z,8.90
2019-01-17T06:53:19.037Z,7.80
2019-01-17T06:54:19.060Z,8.20
2019-01-17T06:54:27.331Z,6.70
2019-01-17T06:55:19.062Z,7.90
2019-01-17T06:56:19.080Z,8.20
2019-01-17T06:56:54.925Z,7.77
2019-01-17T06:57:19.097Z,7.20
2019-01-17T06:58:19.105Z,7.80
2019-01-17T06:59:19.163Z,12.20
2019-01-17T06:59:25.581Z,8.00
2019-01-17T07:00:19.158Z,8.90
2019-01-17T07:01:19.163Z,13.70
2019-01-17T07:01:53.320Z,11.87
2019-01-17T07:02:19.174Z,8.60
2019-01-17T07:03:19.194Z,11.20
2019-01-17T07:04:19.203Z,8.40
2019-01-17T07:04:21.028Z,9.30
2019-01-17T07:05:19.216Z,8.90
2019-01-17T07:06:19.243Z,10.50
2019-01-17T07:06:48.690Z,7.13
2019-01-17T07:07:19.258Z,9.80
2019-01-17T07:08:19.277Z,11.70
2019-01-17T07:09:16.505Z,7.30
2019-01-17T07:09:19.288Z,8.40
2019-01-17T07:10:19.302Z,10.50
2019-01-17T07:11:19.315Z,9.30
2019-01-17T07:11:43.961Z,6.67
2019-01-17T07:12:19.334Z,10.90
2019-01-17T07:13:19.347Z,9.80
2019-01-17T07:14:11.621Z,7.93
2019-01-17T07:14:19.366Z,10.00
2019-01-17T07:15:19.378Z,8.50
2019-01-17T07:16:19.396Z,10.20
2019-01-17T07:16:39.393Z,8.70
2019-01-17T07:17:19.415Z,9.20
2019-01-17T07:18:19.424Z,7.20
2019-01-17T07:19:07.149Z,7.40
2019-01-17T07:19:19.485Z,9.30
2019-01-17T07:20:19.463Z,9.20
2019-01-17T07:21:19.484Z,8.10
2019-01-17T07:21:34.711Z,8.10
2019-01-17T07:22:19.496Z,7.40
2019-01-17T07:23:19.567Z,11.00
2019-01-17T07:24:03.525Z,7.30
2019-01-17T07:24:19.523Z,8.90
2019-01-17T07:25:19.550Z,8.10
2019-01-17T07:26:19.552Z,10.10
2019-01-17T07:26:31.192Z,7.43
2019-01-17T07:27:19.595Z,9.70
2019-01-17T07:28:19.593Z,8.70
2019-01-17T07:28:58.920Z,9.00
2019-01-17T07:29:19.601Z,9.80
2019-01-17T07:30:19.628Z,9.50
2019-01-17T07:31:19.659Z,11.10
2019-01-17T07:31:26.576Z,10.03
2019-01-17T07:32:19.651Z,13.90
2019-01-17T07:33:19.676Z,9.80
2019-01-17T07:33:54.373Z,10.80
2019-01-17T07:34:19.682Z,13.40
2019-01-17T07:35:19.698Z,10.00
2019-01-17T07:36:19.713Z,8.50
2019-01-17T07:36:22.257Z,7.43
2019-01-17T07:37:19.737Z,10.10
2019-01-17T07:38:19.757Z,8.80
2019-01-17T07:38:49.834Z,7.17
2019-01-17T07:39:19.799Z,6.90
2019-01-17T07:40:19.779Z,8.10
2019-01-17T07:41:17.545Z,9.83
2019-01-17T07:41:19.794Z,12.00
2019-01-17T07:42:19.813Z,8.30
2019-01-17T07:43:19.826Z,7.70
2019-01-17T07:43:47.996Z,7.80
2019-01-17T07:44:19.842Z,7.30
2019-01-17T07:45:19.856Z,9.00
2019-01-17T07:46:15.520Z,9.80
2019-01-17T07:46:19.874Z,6.90
2019-01-17T07:47:19.893Z,7.40
2019-01-17T07:48:19.912Z,7.30
2019-01-17T07:48:43.166Z,8.33
2019-01-17T07:49:19.921Z,10.60
2019-01-17T07:50:19.954Z,8.40
2019-01-17T07:51:10.680Z,8.70
2019-01-17T07:51:19.979Z,8.00
2019-01-17T07:52:19.974Z,7.30
2019-01-17T07:53:20.008Z,7.60
2019-01-17T07:53:38.225Z,7.27
2019-01-17T07:54:20.011Z,6.80
2019-01-17T07:55:20.019Z,7.10
2019-01-17T07:56:05.963Z,7.17
2019-01-17T07:56:20.035Z,9.60
2019-01-17T07:57:20.060Z,6.20
2019-01-17T07:58:20.066Z,8.10
2019-01-17T07:58:33.810Z,6.77
2019-01-17T07:59:20.077Z,9.60
2019-01-17T08:00:20.110Z,9.00
2019-01-17T08:01:01.389Z,7.53
2019-01-17T08:01:20.112Z,6.50
2019-01-17T08:02:20.127Z,11.20
2019-01-17T08:03:20.150Z,8.20
2019-01-17T08:03:29.035Z,8.60
2019-01-17T08:04:20.162Z,7.40
2019-01-17T08:05:20.203Z,6.30
2019-01-17T08:05:56.789Z,6.13
2019-01-17T08:06:20.190Z,8.10
2019-01-17T08:07:20.218Z,10.60
2019-01-17T08:08:20.231Z,9.90
2019-01-17T08:08:24.421Z,6.57
2019-01-17T08:09:20.247Z,7.90
2019-01-17T08:10:20.263Z,7.10
2019-01-17T08:10:52.010Z,7.53
2019-01-17T08:11:20.300Z,8.10
2019-01-17T08:12:20.311Z,7.20
2019-01-17T08:13:19.550Z,7.10
2019-01-17T08:13:20.299Z,12.00
2019-01-17T08:14:20.320Z,11.00
2019-01-17T08:15:20.356Z,7.90
2019-01-17T08:15:47.069Z,7.67
2019-01-17T08:16:20.366Z,10.10
2019-01-17T08:17:20.368Z,11.20
2019-01-17T08:18:18.607Z,7.30
2019-01-17T08:18:20.379Z,10.40
2019-01-17T08:19:20.399Z,8.70
2019-01-17T08:20:20.411Z,9.50
2019-01-17T08:20:43.981Z,7.47
2019-01-17T08:21:20.433Z,11.60
2019-01-17T08:22:20.446Z,10.60
2019-01-17T08:23:11.642Z,6.63
2019-01-17T08:23:20.482Z,8.40
2019-01-17T08:24:20.518Z,10.00
2019-01-17T08:25:20.504Z,11.00
2019-01-17T08:25:39.304Z,7.40
2019-01-17T08:26:20.517Z,14.10
2019-01-17T08:27:20.535Z,8.50
2019-01-17T08:28:06.897Z,8.23
2019-01-17T08:28:20.541Z,11.40
2019-01-17T08:29:20.554Z,13.40
2019-01-17T08:30:20.574Z,12.50
2019-01-17T08:30:34.474Z,6.87
2019-01-17T08:31:20.585Z,11.80
2019-01-17T08:32:20.600Z,11.40
2019-01-17T08:33:02.093Z,9.00
2019-01-17T08:33:20.618Z,10.60
2019-01-17T08:34:20.631Z,10.00
2019-01-17T08:35:20.648Z,11.60
2019-01-17T08:35:29.842Z,7.23
2019-01-17T08:36:20.666Z,10.30
2019-01-17T08:37:20.679Z,11.80
2019-01-17T08:37:57.414Z,6.90
2019-01-17T08:38:20.697Z,12.20
2019-01-17T08:39:20.714Z,10.30
2019-01-17T08:40:20.727Z,9.00
2019-01-17T08:40:26.547Z,8.00
2019-01-17T08:41:20.747Z,10.40
2019-01-17T08:42:20.778Z,10.20
2019-01-17T08:42:54.192Z,8.07
2019-01-17T08:43:20.774Z,7.90
2019-01-17T08:44:20.803Z,12.20
2019-01-17T08:45:20.812Z,12.60
2019-01-17T08:45:21.883Z,10.57
2019-01-17T08:46:20.830Z,14.30
2019-01-17T08:47:20.844Z,15.80
2019-01-17T08:47:49.505Z,8.77
2019-01-17T08:48:20.865Z,12.00
2019-01-17T08:49:20.869Z,10.80
2019-01-17T08:50:19.498Z,10.90
2019-01-17T08:50:20.886Z,10.00
2019-01-17T08:51:20.908Z,10.00
2019-01-17T08:52:20.918Z,12.20
2019-01-17T08:52:47.127Z,9.07
2019-01-17T08:53:20.942Z,10.80
2019-01-17T08:54:20.950Z,8.40
2019-01-17T08:55:14.774Z,7.23
2019-01-17T08:55:20.968Z,10.60
2019-01-17T08:56:21.004Z,8.30
2019-01-17T08:57:21.005Z,9.70
2019-01-17T08:57:42.354Z,7.53
2019-01-17T08:58:21.016Z,9.60
2019-01-17T08:59:21.031Z,13.10
2019-01-17T09:00:11.699Z,8.57
2019-01-17T09:00:21.057Z,10.00
2019-01-17T09:01:21.062Z,8.60
2019-01-17T09:02:21.080Z,10.00
2019-01-17T09:02:39.211Z,7.70
2019-01-17T09:03:21.104Z,13.90
2019-01-17T09:04:21.112Z,9.60
2019-01-17T09:05:07.678Z,9.40
2019-01-17T09:05:21.124Z,9.60
2019-01-17T09:06:21.147Z,10.40
2019-01-17T09:07:21.163Z,10.20
2019-01-17T09:07:35.161Z,8.80
2019-01-17T09:08:21.185Z,10.90
2019-01-17T09:09:21.194Z,9.10
2019-01-17T09:10:03.953Z,8.00
2019-01-17T09:10:21.215Z,11.30
2019-01-17T09:11:21.234Z,10.20
2019-01-17T09:12:21.248Z,11.00
2019-01-17T09:12:31.709Z,8.17
2019-01-17T09:13:21.258Z,7.30
2019-01-17T09:14:21.288Z,9.40
2019-01-17T09:14:59.338Z,7.90
2019-01-17T09:15:21.329Z,9.10
2019-01-17T09:16:21.315Z,11.00
2019-01-17T09:17:21.332Z,12.50
2019-01-17T09:17:27.121Z,6.83
2019-01-17T09:18:21.342Z,11.00
2019-01-17T09:19:21.364Z,9.40
2019-01-17T09:19:54.792Z,10.80
2019-01-17T09:20:21.372Z,8.10
2019-01-17T09:21:21.390Z,8.30
2019-01-17T09:22:21.413Z,9.60
2019-01-17T09:22:22.448Z,7.60
2019-01-17T09:23:21.418Z,11.60
2019-01-17T09:24:21.487Z,9.90
2019-01-17T09:24:50.116Z,8.13
2019-01-17T09:25:21.453Z,11.70
2019-01-17T09:26:21.470Z,6.80
2019-01-17T09:27:17.551Z,7.30